Main page
METAR-TAF:

METAR-TAF

Airports :

San Fernando Airport

San Fernando, Argentina

latitude: 34-27-11S, longitude: 058-35-23W, elevation: 3 m

Current weather observation

The report was made 16 minutes ago, at 08:00 UTC
Wind 4 kt from the Northwest
Temperature 4°C
Humidity 70%
Pressure 1025 hPa
Visibility 10 km or more
no clouds below 1500 m and no cumulonimbus

METAR: SADF 300800Z 32004KT CAVOK 04/M01 Q1025

Time: 05:16 (08:16 UTC)

Forecast

The report was made 3 hours and 16 minutes ago, at 05:00 UTC
Forecast valid from 30 at 06 UTC to 31 at 06 UTC
Wind 5 kt from the Northwest
Visibility 10 km or more
no clouds below 1500 m and no cumulonimbus
Becoming
from 30 at 14 UTC to 30 at 16 UTC
Wind 15 kt from the North
Becoming
from 30 at 20 UTC to 30 at 22 UTC
Wind 5 kt from the North/Northeast

TAF: SADF 300500Z 3006/3106 32005KT CAVOK TX16/3018Z TN03/3010Z BECMG 3014/3016 36015KT BECMG 3020/3022 02005KT

Weather observations and forecasts of more than 4000 airports (METAR and TAF reports).

The available stations are represented by yellow and red dots on the map.

Hover mouse over dot to see the name of the station.

Then click to see weather observations and forecasts.

To change the map : click on the green buttons with a black cross to zoom in, on the green button with a dash to zoom out, or on the green arrows for adjacent maps.


METAR-TAF: